createdAt,value
2022-09-07T00:00:57.411Z,19.10
2022-09-07T00:03:25.403Z,19.10
2022-09-07T00:05:53.153Z,19.10
2022-09-07T00:08:23.969Z,19.00
2022-09-07T00:11:03.007Z,19.10
2022-09-07T00:13:32.900Z,19.00
2022-09-07T00:16:10.716Z,19.00
2022-09-07T00:18:45.083Z,19.00
2022-09-07T00:21:15.245Z,19.00
2022-09-07T00:23:42.521Z,19.00
2022-09-07T00:26:16.414Z,18.90
2022-09-07T00:28:44.504Z,19.00
2022-09-07T00:31:15.111Z,18.90
2022-09-07T00:33:45.557Z,18.90
2022-09-07T00:36:13.284Z,18.90
2022-09-07T00:38:40.572Z,18.90
2022-09-07T00:41:08.070Z,18.90
2022-09-07T00:43:45.591Z,18.90
2022-09-07T00:46:36.845Z,18.90
2022-09-07T00:49:18.719Z,18.90
2022-09-07T00:51:57.778Z,18.80
2022-09-07T00:54:39.844Z,18.90
2022-09-07T00:57:07.582Z,18.80
2022-09-07T00:59:39.559Z,18.80
2022-09-07T01:02:07.028Z,18.80
2022-09-07T01:04:35.576Z,18.80
2022-09-07T01:07:05.815Z,18.80
2022-09-07T01:09:33.464Z,18.80
2022-09-07T01:12:02.224Z,18.80
2022-09-07T01:14:37.103Z,18.70
2022-09-07T01:17:25.287Z,18.80
2022-09-07T01:20:29.940Z,18.70
2022-09-07T01:23:40.938Z,18.70
2022-09-07T01:26:45.270Z,18.70
2022-09-07T01:29:12.460Z,18.70
2022-09-07T01:31:46.140Z,18.70
2022-09-07T01:34:25.471Z,18.70
2022-09-07T01:37:01.687Z,18.70
2022-09-07T01:39:57.213Z,18.70
2022-09-07T01:43:00.719Z,18.70
2022-09-07T01:45:32.668Z,18.70
2022-09-07T01:48:06.244Z,18.60
2022-09-07T01:50:45.153Z,18.60
2022-09-07T01:53:32.901Z,18.60
2022-09-07T01:56:28.218Z,18.60
2022-09-07T01:59:01.659Z,18.60
2022-09-07T02:02:03.433Z,18.60
2022-09-07T02:04:46.249Z,18.60
2022-09-07T02:07:31.464Z,18.50
2022-09-07T02:10:14.152Z,18.50
2022-09-07T02:13:18.166Z,18.50
2022-09-07T02:15:53.875Z,18.50
2022-09-07T02:18:23.551Z,18.50
2022-09-07T02:20:54.791Z,18.50
2022-09-07T02:23:30.280Z,18.50
2022-09-07T02:26:04.154Z,18.50
2022-09-07T02:28:34.627Z,18.50
2022-09-07T02:31:03.056Z,18.50
2022-09-07T02:33:30.937Z,18.40
2022-09-07T02:35:58.589Z,18.50
2022-09-07T02:38:26.174Z,18.50
2022-09-07T02:40:55.017Z,18.50
2022-09-07T02:43:24.121Z,18.40
2022-09-07T02:46:09.556Z,18.40
2022-09-07T02:48:48.779Z,18.40
2022-09-07T02:51:34.061Z,18.40
2022-09-07T02:54:16.328Z,18.40
2022-09-07T02:56:51.232Z,18.40
2022-09-07T02:59:27.498Z,18.30
2022-09-07T03:02:12.317Z,18.30
2022-09-07T03:04:48.191Z,18.40
2022-09-07T03:07:26.402Z,18.40
2022-09-07T03:09:56.843Z,18.30
2022-09-07T03:12:24.377Z,18.30
2022-09-07T03:14:51.555Z,18.30
2022-09-07T03:17:18.847Z,18.30
2022-09-07T03:19:49.141Z,18.30
2022-09-07T03:22:16.444Z,18.30
2022-09-07T03:24:46.320Z,18.30
2022-09-07T03:27:14.721Z,18.30
2022-09-07T03:29:44.800Z,18.30
2022-09-07T03:32:11.973Z,18.30
2022-09-07T03:34:39.855Z,18.20
2022-09-07T03:37:07.380Z,18.20
2022-09-07T03:39:35.946Z,18.20
2022-09-07T03:42:03.307Z,18.20
2022-09-07T03:44:30.547Z,18.20
2022-09-07T03:46:57.755Z,18.20
2022-09-07T03:49:24.917Z,18.20
2022-09-07T03:51:52.270Z,18.20
2022-09-07T03:54:19.703Z,18.20
2022-09-07T03:56:47.814Z,18.20
2022-09-07T03:59:16.906Z,18.20
2022-09-07T04:01:47.630Z,18.20
2022-09-07T04:04:15.444Z,18.10
2022-09-07T04:06:42.722Z,18.10
2022-09-07T04:09:13.760Z,18.10
2022-09-07T04:11:43.965Z,18.10
2022-09-07T04:14:12.106Z,18.10
2022-09-07T04:16:39.513Z,18.10
2022-09-07T04:19:07.106Z,18.10
2022-09-07T04:21:37.072Z,18.10
2022-09-07T04:24:04.474Z,18.10
2022-09-07T04:26:34.006Z,18.10
2022-09-07T04:29:01.644Z,18.10
2022-09-07T04:31:32.018Z,18.10
2022-09-07T04:33:59.402Z,18.10
2022-09-07T04:36:26.684Z,18.00
2022-09-07T04:39:01.798Z,18.00
2022-09-07T04:41:31.127Z,18.00
2022-09-07T04:44:00.447Z,18.00
2022-09-07T04:46:35.732Z,18.00
2022-09-07T04:49:08.839Z,18.00
2022-09-07T04:51:37.848Z,18.00
2022-09-07T04:54:05.608Z,18.00
2022-09-07T04:56:33.463Z,18.00
2022-09-07T04:59:04.763Z,18.00
2022-09-07T05:01:32.234Z,17.90
2022-09-07T05:04:03.604Z,18.00
2022-09-07T05:06:32.104Z,18.00
2022-09-07T05:09:00.198Z,18.00
2022-09-07T05:11:29.779Z,18.00
2022-09-07T05:14:02.158Z,18.00
2022-09-07T05:16:30.538Z,17.90
2022-09-07T05:19:02.560Z,17.90
2022-09-07T05:21:32.952Z,17.90
2022-09-07T05:24:01.125Z,17.90
2022-09-07T05:26:31.228Z,17.90
2022-09-07T05:31:56.670Z,17.90
2022-09-07T05:34:32.314Z,17.90
2022-09-07T05:37:00.586Z,17.90
2022-09-07T05:39:28.274Z,17.90
2022-09-07T05:41:55.965Z,17.80
2022-09-07T05:47:10.996Z,17.80
2022-09-07T05:49:38.496Z,17.80
2022-09-07T05:52:05.869Z,17.90
2022-09-07T05:54:33.040Z,17.90
2022-09-07T05:57:00.307Z,17.90
2022-09-07T05:59:27.602Z,17.80
2022-09-07T06:01:57.397Z,17.90
2022-09-07T06:04:24.770Z,17.80
2022-09-07T06:07:20.140Z,17.70
2022-09-07T06:12:27.405Z,17.80
2022-09-07T06:14:54.587Z,17.80
2022-09-07T06:17:21.835Z,17.80
2022-09-07T06:19:49.030Z,17.80
2022-09-07T06:22:16.190Z,17.90
2022-09-07T06:24:43.357Z,17.80
2022-09-07T06:27:10.814Z,17.90
2022-09-07T06:29:40.825Z,17.90
2022-09-07T06:34:55.130Z,17.90
2022-09-07T06:37:22.312Z,17.80
2022-09-07T06:39:53.284Z,17.90
2022-09-07T06:42:20.431Z,17.80
2022-09-07T06:44:47.652Z,17.90
2022-09-07T06:47:17.134Z,17.90
2022-09-07T06:49:44.270Z,17.90
2022-09-07T06:52:11.601Z,17.90
2022-09-07T06:57:25.302Z,17.90
2022-09-07T06:59:52.606Z,17.90
2022-09-07T07:02:19.966Z,17.80
2022-09-07T07:04:47.151Z,17.90
2022-09-07T07:07:14.939Z,17.90
2022-09-07T07:09:42.661Z,17.90
2022-09-07T07:12:11.216Z,17.90
2022-09-07T07:14:44.043Z,17.90
2022-09-07T07:17:15.132Z,17.90
2022-09-07T07:19:42.287Z,17.90
2022-09-07T07:24:56.804Z,17.90
2022-09-07T07:27:24.061Z,17.90
2022-09-07T07:29:52.572Z,17.90
2022-09-07T07:32:19.933Z,17.90
2022-09-07T07:34:47.147Z,17.90
2022-09-07T07:37:16.202Z,17.90
2022-09-07T07:42:32.834Z,17.90
2022-09-07T07:47:51.686Z,17.90
2022-09-07T07:50:34.778Z,17.90
2022-09-07T07:55:49.444Z,17.90
2022-09-07T07:58:17.040Z,17.90
2022-09-07T08:00:54.403Z,17.90
2022-09-07T08:03:23.485Z,17.90
2022-09-07T08:05:50.839Z,18.00
2022-09-07T08:08:18.313Z,17.90
2022-09-07T08:10:47.381Z,18.00
2022-09-07T08:13:16.036Z,18.00
2022-09-07T08:15:46.520Z,18.00
2022-09-07T08:18:15.823Z,18.00
2022-09-07T08:20:43.210Z,18.00
2022-09-07T08:23:10.784Z,18.00
2022-09-07T08:25:37.890Z,18.00
2022-09-07T08:28:05.626Z,18.00
2022-09-07T08:30:32.831Z,18.00
2022-09-07T08:33:00.314Z,18.00
2022-09-07T08:35:27.485Z,18.00
2022-09-07T08:37:54.786Z,18.00
2022-09-07T08:40:21.911Z,18.00
2022-09-07T08:42:54.638Z,18.00
2022-09-07T08:45:44.927Z,18.00
2022-09-07T08:48:16.808Z,18.00
2022-09-07T08:51:15.361Z,18.00
2022-09-07T08:53:49.879Z,18.00
2022-09-07T08:56:33.635Z,18.00
2022-09-07T08:59:11.541Z,18.00
2022-09-07T09:01:42.483Z,18.00
2022-09-07T09:04:25.519Z,18.00
2022-09-07T09:06:54.317Z,18.00
2022-09-07T09:09:36.547Z,18.00
2022-09-07T09:12:13.455Z,18.00
2022-09-07T09:15:00.702Z,18.00
2022-09-07T09:17:54.491Z,18.00
2022-09-07T09:20:32.220Z,18.00
2022-09-07T09:23:05.867Z,18.00
2022-09-07T09:25:35.332Z,18.00
2022-09-07T09:28:03.101Z,18.00
2022-09-07T09:30:31.322Z,18.00
2022-09-07T09:33:26.264Z,18.00
2022-09-07T09:35:55.862Z,18.00
2022-09-07T09:38:32.208Z,17.90
2022-09-07T09:41:12.435Z,18.00
2022-09-07T09:43:51.838Z,18.00
2022-09-07T09:46:31.827Z,18.00
2022-09-07T09:49:06.160Z,18.00
2022-09-07T09:54:52.776Z,18.00
2022-09-07T10:01:21.178Z,18.00
2022-09-07T10:06:18.632Z,18.00
2022-09-07T10:09:00.711Z,18.00
2022-09-07T10:14:44.710Z,18.00
2022-09-07T10:17:14.930Z,18.00
2022-09-07T10:19:43.827Z,18.00
2022-09-07T10:22:36.770Z,18.00
2022-09-07T10:25:27.211Z,18.00
2022-09-07T10:28:15.611Z,18.00
2022-09-07T10:31:00.036Z,18.00
2022-09-07T10:36:49.957Z,18.00
2022-09-07T10:39:26.887Z,18.00
2022-09-07T10:42:14.434Z,18.00
2022-09-07T10:45:10.901Z,18.00
2022-09-07T10:47:56.561Z,18.10
2022-09-07T10:50:31.923Z,18.10
2022-09-07T10:53:45.186Z,18.10
2022-09-07T10:56:19.827Z,18.10
2022-09-07T10:59:17.516Z,18.10
2022-09-07T11:02:09.272Z,18.10
2022-09-07T11:04:55.032Z,18.10
2022-09-07T11:07:46.286Z,18.10
2022-09-07T11:10:40.699Z,18.10
2022-09-07T11:13:11.991Z,18.10
2022-09-07T11:15:52.947Z,18.10
2022-09-07T11:18:28.686Z,18.10
2022-09-07T11:20:59.073Z,18.10
2022-09-07T11:23:40.396Z,18.10
2022-09-07T11:26:35.370Z,18.20
2022-09-07T11:32:12.545Z,18.10
2022-09-07T11:34:52.154Z,18.20
2022-09-07T11:37:42.414Z,18.10
2022-09-07T11:40:14.412Z,18.20
2022-09-07T11:43:05.592Z,18.20
2022-09-07T11:45:48.111Z,18.20
2022-09-07T11:48:33.794Z,18.20
2022-09-07T11:51:19.918Z,18.10
2022-09-07T11:54:02.279Z,18.20
2022-09-07T11:56:36.292Z,18.20
2022-09-07T11:59:22.182Z,18.20
2022-09-07T12:02:42.321Z,18.20
2022-09-07T12:05:20.172Z,18.20
2022-09-07T12:07:50.077Z,18.20
2022-09-07T12:10:23.278Z,18.20
2022-09-07T12:13:04.410Z,18.20
2022-09-07T12:15:52.896Z,18.20
2022-09-07T12:18:50.412Z,18.20
2022-09-07T12:21:48.873Z,18.20
2022-09-07T12:24:51.131Z,18.20
2022-09-07T12:27:21.657Z,18.20
2022-09-07T12:29:49.994Z,18.20
2022-09-07T12:32:56.498Z,18.20
2022-09-07T12:35:31.145Z,18.20
2022-09-07T12:38:21.608Z,18.20
2022-09-07T12:42:31.787Z,18.30
2022-09-07T12:44:41.119Z,18.20
2022-09-07T12:47:11.241Z,18.20
2022-09-07T12:50:19.591Z,18.20
2022-09-07T12:52:50.381Z,18.30
2022-09-07T12:56:16.750Z,18.30
2022-09-07T12:59:02.681Z,18.20
2022-09-07T13:01:48.647Z,18.20
2022-09-07T13:05:00.026Z,18.20
2022-09-07T13:08:08.252Z,18.30
2022-09-07T13:10:39.717Z,18.20
2022-09-07T13:13:14.396Z,18.20
2022-09-07T13:16:07.145Z,18.30
2022-09-07T13:18:37.610Z,18.30
2022-09-07T13:21:07.433Z,18.20
2022-09-07T13:23:49.563Z,18.10
2022-09-07T13:26:51.365Z,18.10
2022-09-07T13:29:27.230Z,18.20
2022-09-07T13:32:08.010Z,18.20
2022-09-07T13:34:35.124Z,18.30
2022-09-07T13:37:07.078Z,18.30
2022-09-07T13:39:45.058Z,18.30
2022-09-07T13:42:25.295Z,18.30
2022-09-07T13:44:59.196Z,18.40
2022-09-07T13:47:50.563Z,18.40
2022-09-07T13:50:40.179Z,18.40
2022-09-07T13:53:43.023Z,18.50
2022-09-07T13:56:19.309Z,18.50
2022-09-07T13:58:52.857Z,18.50
2022-09-07T14:01:23.036Z,18.50
2022-09-07T14:04:07.696Z,18.50
2022-09-07T14:06:36.643Z,18.50
2022-09-07T14:09:13.518Z,18.50
2022-09-07T14:11:48.068Z,18.50
2022-09-07T14:14:22.953Z,18.50
2022-09-07T14:17:18.322Z,18.60
2022-09-07T14:19:49.162Z,18.60
2022-09-07T14:22:22.599Z,18.60
2022-09-07T14:24:56.163Z,18.70
2022-09-07T14:27:35.144Z,18.70
2022-09-07T14:30:28.407Z,18.70
2022-09-07T14:33:04.957Z,18.70
2022-09-07T14:35:38.596Z,18.70
2022-09-07T14:41:16.019Z,18.80
2022-09-07T14:43:54.927Z,18.80
2022-09-07T14:46:35.805Z,18.80
2022-09-07T14:49:07.978Z,18.80
2022-09-07T14:51:37.464Z,18.80
2022-09-07T14:54:09.298Z,18.90
2022-09-07T14:56:43.327Z,18.90
2022-09-07T14:59:35.704Z,18.90
2022-09-07T15:02:34.442Z,18.90
2022-09-07T15:05:22.602Z,18.90
2022-09-07T15:07:58.017Z,18.90
2022-09-07T15:10:29.260Z,19.00
2022-09-07T15:13:00.155Z,19.00
2022-09-07T15:15:41.798Z,19.00
2022-09-07T15:18:39.553Z,19.00
2022-09-07T15:21:09.058Z,19.00
2022-09-07T15:23:36.587Z,19.00
2022-09-07T15:26:09.890Z,19.00
2022-09-07T15:29:12.173Z,19.00
2022-09-07T15:31:42.535Z,19.00
2022-09-07T15:34:15.799Z,19.00
2022-09-07T15:36:48.581Z,19.00
2022-09-07T15:39:21.840Z,19.00
2022-09-07T15:41:49.177Z,19.10
2022-09-07T15:44:20.427Z,19.10
2022-09-07T15:49:43.483Z,19.00
2022-09-07T15:52:13.342Z,19.00
2022-09-07T15:54:40.484Z,19.00
2022-09-07T15:59:54.742Z,18.90
2022-09-07T16:05:12.339Z,18.90
2022-09-07T16:10:31.435Z,18.90
2022-09-07T16:13:03.905Z,18.80
2022-09-07T16:15:45.846Z,18.90
2022-09-07T16:18:20.634Z,18.80
2022-09-07T16:20:54.204Z,18.90
2022-09-07T16:23:21.722Z,18.80
2022-09-07T16:26:00.300Z,18.80
2022-09-07T16:28:28.721Z,18.80
2022-09-07T16:30:56.490Z,18.80
2022-09-07T16:33:31.609Z,18.80
2022-09-07T16:36:10.139Z,18.80
2022-09-07T16:38:55.365Z,18.80
2022-09-07T16:41:26.784Z,18.80
2022-09-07T16:43:57.633Z,18.80
2022-09-07T16:46:28.245Z,18.80
2022-09-07T16:48:55.491Z,18.80
2022-09-07T16:51:24.004Z,18.80
2022-09-07T16:53:58.618Z,18.90
2022-09-07T16:56:27.887Z,19.00
2022-09-07T16:59:01.063Z,19.00
2022-09-07T17:01:36.101Z,19.10
2022-09-07T17:04:09.656Z,19.20
2022-09-07T17:06:38.980Z,19.20
2022-09-07T17:09:06.425Z,19.20
2022-09-07T17:11:35.509Z,19.20
2022-09-07T17:14:05.140Z,19.30
2022-09-07T17:16:38.029Z,19.30
2022-09-07T17:21:55.445Z,19.30
2022-09-07T17:24:24.570Z,19.30
2022-09-07T17:26:54.580Z,19.30
2022-09-07T17:30:15.209Z,19.30
2022-09-07T17:32:42.324Z,19.30
2022-09-07T17:35:09.897Z,19.30
2022-09-07T17:37:37.009Z,19.30
2022-09-07T17:40:06.036Z,19.30
2022-09-07T17:45:20.433Z,19.30
2022-09-07T17:47:49.624Z,19.30
2022-09-07T17:50:16.827Z,19.30
2022-09-07T17:52:46.016Z,19.30
2022-09-07T17:55:13.306Z,19.30
2022-09-07T17:57:40.475Z,19.30
2022-09-07T18:00:11.318Z,19.30
2022-09-07T18:02:39.093Z,19.30
2022-09-07T18:05:07.326Z,19.30
2022-09-07T18:07:35.232Z,19.30
2022-09-07T18:10:03.153Z,19.30
2022-09-07T18:12:30.297Z,19.30
2022-09-07T18:14:57.402Z,19.30
2022-09-07T18:17:24.502Z,19.30
2022-09-07T18:19:51.757Z,19.30
2022-09-07T18:22:22.595Z,19.30
2022-09-07T18:24:51.143Z,19.30
2022-09-07T18:27:21.148Z,19.30
2022-09-07T18:29:48.545Z,19.30
2022-09-07T18:32:15.713Z,19.30
2022-09-07T18:34:45.872Z,19.30
2022-09-07T18:37:19.898Z,19.30
2022-09-07T18:39:48.695Z,19.30
2022-09-07T18:42:16.092Z,19.30
2022-09-07T18:47:31.419Z,19.30
2022-09-07T18:49:59.120Z,19.30
2022-09-07T18:55:14.213Z,19.30
2022-09-07T18:58:43.172Z,19.30
2022-09-07T19:01:16.820Z,19.30
2022-09-07T19:03:51.787Z,19.20
2022-09-07T19:06:19.012Z,19.20
2022-09-07T19:08:46.787Z,19.20
2022-09-07T19:11:25.301Z,19.30
2022-09-07T19:14:00.232Z,19.20
2022-09-07T19:16:28.479Z,19.20
2022-09-07T19:18:58.199Z,19.20
2022-09-07T19:21:28.867Z,19.20
2022-09-07T19:24:07.450Z,19.20
2022-09-07T19:26:37.453Z,19.20
2022-09-07T19:29:15.582Z,19.20
2022-09-07T19:32:04.302Z,19.20
2022-09-07T19:34:36.538Z,19.20
2022-09-07T19:37:05.244Z,19.20
2022-09-07T19:39:32.706Z,19.20
2022-09-07T19:42:00.009Z,19.20
2022-09-07T19:44:28.121Z,19.20
2022-09-07T19:46:55.743Z,19.20
2022-09-07T19:49:23.536Z,19.20
2022-09-07T19:51:52.136Z,19.20
2022-09-07T19:54:19.745Z,19.10
2022-09-07T19:56:46.987Z,19.10
2022-09-07T19:59:14.731Z,19.10
2022-09-07T20:01:46.418Z,19.10
2022-09-07T20:04:20.368Z,19.10
2022-09-07T20:06:50.365Z,19.10
2022-09-07T20:09:19.144Z,19.10
2022-09-07T20:11:47.748Z,19.10
2022-09-07T20:14:21.687Z,19.10
2022-09-07T20:16:48.797Z,19.10
2022-09-07T20:19:16.226Z,19.10
2022-09-07T20:21:43.421Z,19.10
2022-09-07T20:24:14.516Z,19.10
2022-09-07T20:26:42.015Z,19.10
2022-09-07T20:29:27.868Z,19.10
2022-09-07T20:31:57.871Z,19.10
2022-09-07T20:34:25.832Z,19.10
2022-09-07T20:36:53.400Z,19.10
2022-09-07T20:39:22.918Z,19.10
2022-09-07T20:41:50.312Z,19.00
2022-09-07T20:44:17.778Z,19.00
2022-09-07T20:46:44.964Z,19.00
2022-09-07T20:49:12.177Z,19.00
2022-09-07T20:51:39.268Z,19.10
2022-09-07T20:54:07.291Z,19.00
2022-09-07T20:56:34.706Z,19.00
2022-09-07T20:59:02.985Z,19.00
2022-09-07T21:01:31.988Z,19.00
2022-09-07T21:04:00.712Z,19.00
2022-09-07T21:06:29.797Z,19.00
2022-09-07T21:08:57.568Z,19.00
2022-09-07T21:18:56.077Z,19.00
2022-09-07T21:21:24.926Z,18.90
2022-09-07T21:24:00.143Z,19.00
2022-09-07T21:26:28.964Z,19.00
2022-09-07T21:29:01.889Z,18.90
2022-09-07T21:31:33.715Z,19.00
2022-09-07T21:34:02.242Z,19.00
2022-09-07T21:36:30.084Z,18.90
2022-09-07T21:38:57.349Z,19.00
2022-09-07T21:41:25.940Z,18.90
2022-09-07T21:44:00.033Z,18.90
2022-09-07T21:46:32.288Z,18.90
2022-09-07T21:49:00.395Z,18.90
2022-09-07T21:51:28.413Z,18.90
2022-09-07T21:53:59.563Z,18.90
2022-09-07T21:56:32.131Z,18.90
2022-09-07T21:59:02.531Z,18.90
2022-09-07T22:01:30.726Z,18.90
2022-09-07T22:04:01.120Z,18.90
2022-09-07T22:06:29.612Z,18.90
2022-09-07T22:08:58.980Z,18.90
2022-09-07T22:11:28.491Z,18.90
2022-09-07T22:14:02.024Z,18.90
2022-09-07T22:16:30.591Z,18.80
2022-09-07T22:18:57.974Z,18.80
2022-09-07T22:21:27.936Z,18.90
2022-09-07T22:23:58.110Z,18.80
2022-09-07T22:26:27.963Z,18.80
2022-09-07T22:28:58.688Z,18.80
2022-09-07T22:31:31.284Z,18.80
2022-09-07T22:33:59.829Z,18.80
2022-09-07T22:36:32.573Z,18.80
2022-09-07T22:39:02.250Z,18.80
2022-09-07T22:41:32.601Z,18.80
2022-09-07T22:46:56.415Z,18.80
2022-09-07T22:49:23.507Z,18.80
2022-09-07T22:51:50.817Z,18.80
2022-09-07T22:54:18.011Z,18.80
2022-09-07T22:56:45.134Z,18.80
2022-09-07T22:59:12.867Z,18.70
2022-09-07T23:01:40.556Z,18.70
2022-09-07T23:04:09.568Z,18.70
2022-09-07T23:06:39.606Z,18.70
2022-09-07T23:09:13.513Z,18.70
2022-09-07T23:11:40.946Z,18.70
2022-09-07T23:14:14.371Z,18.70
2022-09-07T23:16:42.187Z,18.70
2022-09-07T23:19:12.110Z,18.70
2022-09-07T23:21:40.736Z,18.70
2022-09-07T23:24:11.598Z,18.60
2022-09-07T23:26:38.912Z,18.60
2022-09-07T23:29:06.757Z,18.60
2022-09-07T23:31:35.204Z,18.60
2022-09-07T23:34:03.153Z,18.60
2022-09-07T23:36:31.264Z,18.60
2022-09-07T23:38:59.834Z,18.60
2022-09-07T23:45:17.667Z,18.60
2022-09-07T23:47:44.720Z,18.50
2022-09-07T23:50:11.732Z,18.50
2022-09-07T23:52:38.902Z,18.50
2022-09-07T23:55:10.353Z,18.50
2022-09-07T23:57:38.781Z,18.50
